Time;durP1;ratioP1;P1;durP2;ratioP2;P2;SDS_P1;SDS_P2;PMS_P1;PMS_P2;Temp;Humidity;BMP_temperature;BMP_pressure;BME280_temperature;BME280_humidity;BME280_pressure;Samples;Min_cycle;Max_cycle;Signal;HPM_P1;HPM_P2
2021/12/20 00:02:17;;;;;;;360.88;169.07;;;3.20;99.90;;;;;;5053097;28;20032;-53
2021/12/20 00:04:45;;;;;;;322.40;146.10;;;3.10;99.90;;;;;;5052979;28;20495;-57
2021/12/20 00:07:10;;;;;;;292.88;138.00;;;3.10;99.90;;;;;;5052590;28;20029;-58
2021/12/20 00:09:36;;;;;;;384.52;178.02;;;3.10;99.90;;;;;;5052832;28;20079;-54
2021/12/20 00:12:02;;;;;;;329.33;161.68;;;3.10;99.90;;;;;;5053146;28;20032;-53
2021/12/20 00:14:28;;;;;;;302.27;142.10;;;3.00;99.90;;;;;;5052722;28;20403;-57
2021/12/20 00:16:53;;;;;;;329.02;152.07;;;3.00;99.90;;;;;;5052816;28;20087;-52
2021/12/20 00:19:19;;;;;;;269.88;135.77;;;2.90;99.90;;;;;;5052686;28;20039;-58
2021/12/20 00:21:45;;;;;;;263.20;124.55;;;2.90;99.90;;;;;;5052640;28;20391;-58
2021/12/20 00:24:11;;;;;;;254.13;116.00;;;2.80;99.90;;;;;;5052901;28;20024;-54
2021/12/20 00:26:37;;;;;;;244.60;117.55;;;2.90;99.90;;;;;;5052895;28;20025;-56
2021/12/20 00:29:03;;;;;;;254.90;121.57;;;2.90;99.90;;;;;;5052841;28;20027;-56
2021/12/20 00:31:29;;;;;;;222.27;105.22;;;2.90;99.90;;;;;;5053088;28;20096;-55
2021/12/20 00:33:54;;;;;;;352.88;164.90;;;3.00;99.90;;;;;;5056985;28;20113;-58
2021/12/20 00:36:26;;;;;;;233.70;113.05;;;3.00;99.90;;;;;;5056516;28;20021;-50
2021/12/20 00:41:35;;;;;;;219.73;103.55;;;2.80;99.90;;;;;;5056918;28;20051;-53
2021/12/20 00:44:02;;;;;;;211.10;100.93;;;2.90;99.90;;;;;;5056440;28;20510;-57
2021/12/20 00:46:27;;;;;;;244.07;115.78;;;2.90;99.90;;;;;;5056418;28;20017;-50
2021/12/20 00:48:53;;;;;;;201.52;94.35;;;3.00;99.90;;;;;;5056189;28;20128;-59
2021/12/20 00:51:19;;;;;;;205.48;97.78;;;3.00;99.90;;;;;;5056314;28;20025;-58
2021/12/20 00:53:44;;;;;;;201.27;94.03;;;3.00;99.90;;;;;;5056403;28;20601;-60
2021/12/20 00:56:10;;;;;;;193.00;89.18;;;3.00;99.90;;;;;;5056288;28;20025;-52
2021/12/20 00:58:36;;;;;;;202.35;100.15;;;3.00;99.90;;;;;;5056175;28;20048;-57
2021/12/20 01:01:03;;;;;;;160.40;77.03;;;2.90;99.90;;;;;;5056099;28;20036;-53
2021/12/20 01:03:30;;;;;;;290.25;132.45;;;2.90;99.90;;;;;;5056222;28;20108;-58
2021/12/20 01:05:57;;;;;;;163.43;79.38;;;2.90;99.90;;;;;;5055826;28;20040;-56
2021/12/20 01:08:23;;;;;;;185.45;92.45;;;2.80;99.90;;;;;;5056189;28;20136;-56
2021/12/20 01:10:52;;;;;;;201.90;96.57;;;2.70;99.90;;;;;;5056096;28;20040;-57
2021/12/20 01:13:21;;;;;;;223.95;108.13;;;2.70;99.90;;;;;;5055963;28;20064;-53
2021/12/20 01:15:50;;;;;;;172.20;84.60;;;2.70;99.90;;;;;;5055939;28;20464;-57
2021/12/20 01:18:17;;;;;;;196.07;93.70;;;2.60;99.90;;;;;;5056048;28;20387;-58
2021/12/20 01:20:44;;;;;;;233.52;107.20;;;2.70;99.90;;;;;;5055472;28;20029;-52
2021/12/20 01:23:11;;;;;;;184.85;85.30;;;2.70;99.90;;;;;;5055807;28;20044;-60
2021/12/20 01:25:37;;;;;;;165.75;81.00;;;2.70;99.90;;;;;;5055820;28;20021;-53
2021/12/20 01:28:04;;;;;;;165.73;78.63;;;2.70;99.90;;;;;;5055559;28;20029;-57
2021/12/20 01:30:29;;;;;;;182.48;88.38;;;2.70;99.90;;;;;;5055676;28;20101;-55
2021/12/20 01:32:56;;;;;;;138.82;69.47;;;2.70;99.90;;;;;;5055530;28;20487;-52
2021/12/20 01:35:23;;;;;;;168.70;80.85;;;2.70;99.90;;;;;;5055380;28;20479;-60
2021/12/20 01:37:49;;;;;;;142.18;65.90;;;2.70;99.90;;;;;;5055491;28;20021;-54
2021/12/20 01:40:16;;;;;;;135.18;63.10;;;2.80;99.90;;;;;;5055491;28;20033;-57
2021/12/20 01:42:44;;;;;;;133.85;61.60;;;2.80;99.90;;;;;;5055109;28;20055;-52
2021/12/20 01:45:18;;;;;;;129.73;63.13;;;2.80;99.90;;;;;;5055304;28;20025;-57
2021/12/20 01:47:49;;;;;;;199.35;98.00;;;2.80;99.90;;;;;;5055304;28;20021;-58
2021/12/20 01:50:41;;;;;;;158.45;75.43;;;2.80;99.90;;;;;;5054790;28;20093;-53
2021/12/20 01:53:02;;;;;;;182.77;86.78;;;2.80;99.90;;;;;;5055114;28;20025;-59
2021/12/20 01:55:28;;;;;;;185.43;90.35;;;2.80;99.90;;;;;;5055109;28;20017;-54
2021/12/20 01:57:54;;;;;;;237.73;112.47;;;2.90;99.90;;;;;;5055063;28;20082;-58
2021/12/20 02:00:23;;;;;;;179.20;84.55;;;2.90;99.90;;;;;;5055030;28;20063;-56
2021/12/20 02:02:54;;;;;;;172.48;81.07;;;2.90;99.90;;;;;;5054940;28;20025;-59
2021/12/20 02:05:25;;;;;;;165.63;84.70;;;2.90;99.90;;;;;;5055269;28;20479;-55
2021/12/20 02:08:03;;;;;;;204.23;94.30;;;3.00;99.90;;;;;;5055210;28;20017;-59
2021/12/20 02:10:33;;;;;;;175.20;82.47;;;3.10;99.90;;;;;;5054909;28;20395;-51
2021/12/20 02:13:00;;;;;;;190.02;88.30;;;3.10;99.90;;;;;;5054863;28;20029;-51
2021/12/20 02:15:26;;;;;;;197.05;88.15;;;3.20;99.90;;;;;;5054963;28;20025;-56
2021/12/20 02:17:52;;;;;;;153.48;75.05;;;3.30;99.90;;;;;;5054503;28;20032;-51
2021/12/20 02:20:29;;;;;;;145.73;73.22;;;3.30;99.90;;;;;;5054738;28;20087;-55
2021/12/20 02:22:59;;;;;;;159.48;77.88;;;3.30;99.90;;;;;;5054645;28;20043;-51
2021/12/20 02:25:27;;;;;;;167.55;81.32;;;3.40;99.90;;;;;;5054628;28;20070;-54
2021/12/20 02:27:53;;;;;;;147.18;70.80;;;3.40;99.90;;;;;;5054531;28;20182;-58
2021/12/20 02:38:41;;;;;;;113.95;55.55;;;3.30;99.90;;;;;;5054304;28;20055;-55
2021/12/20 02:41:14;;;;;;;123.25;59.28;;;3.40;99.90;;;;;;5054236;28;20396;-56
2021/12/20 02:43:43;;;;;;;108.80;53.38;;;3.40;99.90;;;;;;5054569;28;20025;-54
2021/12/20 02:48:57;;;;;;;149.73;73.55;;;3.50;99.90;;;;;;5053904;28;20076;-55
2021/12/20 02:51:24;;;;;;;127.65;59.33;;;3.60;99.90;;;;;;5054019;28;20021;-54
2021/12/20 02:53:50;;;;;;;124.60;56.63;;;3.50;99.90;;;;;;5053856;28;20074;-60
2021/12/20 02:56:16;;;;;;;96.63;49.30;;;3.50;99.90;;;;;;5053619;28;20104;-59
2021/12/20 02:58:42;;;;;;;92.38;47.67;;;3.50;99.90;;;;;;5053850;28;20474;-56
2021/12/20 03:01:08;;;;;;;105.75;52.83;;;3.50;99.90;;;;;;5053809;28;20036;-55
2021/12/20 03:03:34;;;;;;;97.97;48.78;;;3.60;99.90;;;;;;5054175;28;20025;-55
2021/12/20 03:06:06;;;;;;;178.63;85.15;;;3.60;99.90;;;;;;5053777;28;20403;-56
2021/12/20 03:08:32;;;;;;;152.57;73.85;;;3.60;99.90;;;;;;5053799;28;20032;-57
2021/12/20 03:10:57;;;;;;;127.85;64.95;;;3.60;99.90;;;;;;5053790;28;20029;-60
2021/12/20 03:13:23;;;;;;;125.28;62.70;;;3.60;99.90;;;;;;5053582;28;20025;-55
2021/12/20 03:15:49;;;;;;;128.82;64.72;;;3.50;99.90;;;;;;5053640;28;20036;-53
2021/12/20 03:18:14;;;;;;;124.00;62.38;;;3.50;99.90;;;;;;5053394;28;20100;-57
2021/12/20 03:20:41;;;;;;;133.98;66.80;;;3.60;99.90;;;;;;5053459;28;20483;-57
2021/12/20 03:23:07;;;;;;;111.13;55.83;;;3.50;99.90;;;;;;5053504;28;20029;-53
2021/12/20 03:25:32;;;;;;;112.32;55.78;;;3.50;99.90;;;;;;5053474;28;20025;-54
2021/12/20 03:27:58;;;;;;;101.25;51.97;;;3.60;99.90;;;;;;5053459;28;20021;-54
2021/12/20 03:30:25;;;;;;;99.43;49.63;;;3.60;99.90;;;;;;5053134;28;20024;-56
2021/12/20 03:32:51;;;;;;;97.93;48.50;;;3.60;99.90;;;;;;5053346;28;20557;-56
2021/12/20 03:35:17;;;;;;;101.60;51.45;;;3.60;99.90;;;;;;5053386;28;20100;-58
2021/12/20 03:37:43;;;;;;;108.53;54.55;;;3.70;99.90;;;;;;5053228;28;20483;-57
2021/12/20 03:40:09;;;;;;;117.82;58.05;;;3.70;99.90;;;;;;5053701;28;20060;-60
2021/12/20 03:42:36;;;;;;;90.10;47.03;;;3.70;99.90;;;;;;5053314;28;20017;-53
2021/12/20 03:45:02;;;;;;;151.30;75.68;;;3.70;99.90;;;;;;5053219;28;20391;-57
2021/12/20 03:47:28;;;;;;;108.00;52.58;;;3.70;99.90;;;;;;5053323;28;20014;-55
2021/12/20 03:49:54;;;;;;;115.93;58.35;;;3.70;99.90;;;;;;5052864;28;20045;-49
2021/12/20 03:52:19;;;;;;;114.47;58.33;;;3.70;99.90;;;;;;5053117;28;20022;-52
2021/12/20 03:54:45;;;;;;;97.70;49.75;;;3.60;99.90;;;;;;5053169;28;20025;-56
2021/12/20 03:57:11;;;;;;;87.65;47.85;;;3.60;99.90;;;;;;5053103;28;20017;-55
2021/12/20 03:59:36;;;;;;;95.95;49.58;;;3.70;99.90;;;;;;5053017;28;20042;-58
2021/12/20 04:02:02;;;;;;;92.13;46.85;;;3.70;99.90;;;;;;5053198;28;20032;-56
2021/12/20 04:04:28;;;;;;;160.02;78.18;;;3.70;99.90;;;;;;5053060;28;20021;-54
2021/12/20 04:06:54;;;;;;;136.60;67.25;;;3.70;99.90;;;;;;5055704;28;20029;-60
2021/12/20 04:09:20;;;;;;;104.55;52.50;;;3.50;99.90;;;;;;5057373;28;20021;-57
2021/12/20 04:11:45;;;;;;;89.60;49.35;;;3.40;99.90;;;;;;5057439;28;20025;-51
2021/12/20 04:14:11;;;;;;;93.10;47.25;;;3.40;99.90;;;;;;5056923;28;20048;-55
2021/12/20 04:16:37;;;;;;;87.88;45.17;;;3.40;99.90;;;;;;5056964;28;20025;-53
2021/12/20 04:19:03;;;;;;;96.80;49.90;;;3.40;99.90;;;;;;5057116;28;20021;-54
2021/12/20 04:21:30;;;;;;;75.20;40.70;;;3.40;99.90;;;;;;5056953;28;20104;-57
2021/12/20 04:23:56;;;;;;;84.38;43.67;;;3.30;99.90;;;;;;5056835;28;20439;-54
2021/12/20 04:26:22;;;;;;;71.03;38.33;;;3.30;99.90;;;;;;5056889;28;20486;-59
2021/12/20 04:28:48;;;;;;;87.95;43.13;;;3.40;99.90;;;;;;5056655;28;20024;-52
2021/12/20 04:31:14;;;;;;;97.72;50.80;;;3.30;99.90;;;;;;5056708;28;20482;-59
2021/12/20 04:33:40;;;;;;;112.05;55.10;;;3.30;99.90;;;;;;5056677;28;20027;-55
2021/12/20 04:36:06;;;;;;;137.30;66.70;;;3.20;99.90;;;;;;5056682;28;20034;-57
2021/12/20 04:38:32;;;;;;;98.50;50.60;;;3.10;99.90;;;;;;5056579;28;20356;-53
2021/12/20 04:40:58;;;;;;;93.47;46.80;;;3.00;99.90;;;;;;5056499;28;20033;-60
2021/12/20 04:43:24;;;;;;;100.30;48.40;;;3.10;99.90;;;;;;5056388;28;20471;-55
2021/12/20 04:45:50;;;;;;;103.53;53.25;;;3.10;99.90;;;;;;5056768;28;20028;-51
2021/12/20 04:48:16;;;;;;;94.13;45.80;;;3.10;99.90;;;;;;5056334;28;20495;-54
2021/12/20 04:50:42;;;;;;;127.32;61.42;;;3.20;99.90;;;;;;5056156;28;20045;-57
2021/12/20 04:53:07;;;;;;;103.07;50.70;;;3.20;99.90;;;;;;5056307;28;20519;-55
2021/12/20 04:55:33;;;;;;;107.15;51.72;;;3.20;99.90;;;;;;5056503;28;20029;-56
2021/12/20 04:58:01;;;;;;;79.35;42.55;;;3.30;99.90;;;;;;5056099;28;20031;-58
2021/12/20 05:00:30;;;;;;;127.65;61.30;;;3.30;99.90;;;;;;5056195;28;20029;-59
2021/12/20 05:02:56;;;;;;;126.95;62.08;;;3.40;99.90;;;;;;5056069;28;20028;-55
2021/12/20 05:05:22;;;;;;;99.20;49.50;;;3.30;99.90;;;;;;5056466;28;20438;-55
2021/12/20 05:07:49;;;;;;;106.30;52.25;;;3.30;99.90;;;;;;5056375;28;20021;-55
2021/12/20 05:10:26;;;;;;;129.43;66.80;;;3.30;99.90;;;;;;5055942;28;20478;-52
2021/12/20 05:12:57;;;;;;;102.60;51.20;;;3.40;99.90;;;;;;5056078;28;20120;-53
2021/12/20 05:15:24;;;;;;;89.00;47.00;;;3.40;99.90;;;;;;5055920;28;20029;-53
2021/12/20 05:17:50;;;;;;;93.22;48.38;;;3.40;99.90;;;;;;5055308;28;20031;-50
2021/12/20 05:20:16;;;;;;;95.57;48.67;;;3.50;99.90;;;;;;5055759;28;20080;-57
2021/12/20 05:22:42;;;;;;;76.88;42.63;;;3.60;99.90;;;;;;5056088;28;20052;-54
2021/12/20 05:25:08;;;;;;;90.10;44.90;;;3.60;99.90;;;;;;5055754;28;20017;-59
2021/12/20 05:27:34;;;;;;;106.50;52.33;;;3.70;99.90;;;;;;5055497;28;20070;-55
2021/12/20 05:30:00;;;;;;;101.40;51.00;;;3.70;99.90;;;;;;5055973;28;20025;-53
2021/12/20 05:32:26;;;;;;;76.63;42.03;;;3.70;99.90;;;;;;5055784;28;20024;-60
2021/12/20 05:34:52;;;;;;;83.20;45.03;;;3.70;99.90;;;;;;5055933;28;20478;-56
2021/12/20 05:37:18;;;;;;;95.75;49.50;;;3.70;99.90;;;;;;5055811;28;20056;-50
2021/12/20 05:39:45;;;;;;;85.25;43.03;;;3.70;99.90;;;;;;5055488;28;20463;-55
2021/12/20 05:42:11;;;;;;;107.70;51.50;;;3.80;99.90;;;;;;5055334;28;20025;-56
2021/12/20 05:44:37;;;;;;;92.00;48.22;;;3.80;99.90;;;;;;5055361;28;20098;-52
2021/12/20 05:47:03;;;;;;;106.63;54.65;;;3.90;99.90;;;;;;5055186;28;20482;-53
2021/12/20 05:49:31;;;;;;;92.30;47.15;;;3.90;99.90;;;;;;5055074;28;20102;-56
2021/12/20 05:52:03;;;;;;;83.68;44.55;;;3.90;99.90;;;;;;5055272;28;20060;-57
2021/12/20 05:54:29;;;;;;;90.55;48.42;;;3.90;99.90;;;;;;5054882;28;20527;-49
2021/12/20 05:56:55;;;;;;;93.68;48.33;;;3.90;99.90;;;;;;5054455;28;20464;-52
2021/12/20 05:59:20;;;;;;;82.85;43.35;;;3.90;99.90;;;;;;5054431;28;20082;-52
2021/12/20 06:01:46;;;;;;;112.43;55.80;;;4.00;99.90;;;;;;5054793;28;20021;-53
2021/12/20 06:04:12;;;;;;;94.45;48.60;;;4.00;99.90;;;;;;5054333;28;20035;-51
2021/12/20 06:06:37;;;;;;;104.80;52.78;;;4.00;99.90;;;;;;5047634;28;20020;-54
2021/12/20 06:09:03;;;;;;;90.03;49.15;;;4.00;99.90;;;;;;5047355;28;20041;-52
2021/12/20 06:11:29;;;;;;;122.63;65.47;;;4.00;99.90;;;;;;5042204;28;20131;-50
2021/12/20 06:13:54;;;;;;;136.75;68.38;;;4.10;99.90;;;;;;5048730;28;20025;-50
2021/12/20 06:16:20;;;;;;;99.65;53.28;;;4.00;99.90;;;;;;5035976;28;20030;-51
2021/12/20 06:18:46;;;;;;;101.97;54.60;;;4.10;99.90;;;;;;5033487;28;20022;-51
2021/12/20 06:21:12;;;;;;;103.18;55.20;;;4.10;99.90;;;;;;5034189;28;20438;-52
2021/12/20 06:23:37;;;;;;;97.43;52.25;;;4.10;99.90;;;;;;5032777;28;20022;-51
2021/12/20 06:26:04;;;;;;;171.15;87.88;;;4.10;99.90;;;;;;5032159;28;20029;-53
2021/12/20 06:28:30;;;;;;;140.07;75.97;;;4.10;99.90;;;;;;5031748;28;20028;-53
2021/12/20 06:30:56;;;;;;;120.35;62.92;;;3.90;99.90;;;;;;5031013;28;20095;-50
2021/12/20 06:33:22;;;;;;;109.45;59.67;;;4.00;99.90;;;;;;5030755;28;20025;-55
2021/12/20 06:35:48;;;;;;;116.70;61.97;;;4.00;99.90;;;;;;5036627;28;20026;-55
2021/12/20 06:38:19;;;;;;;182.15;89.65;;;4.10;99.90;;;;;;5040638;28;20033;-49
2021/12/20 06:40:45;;;;;;;156.77;76.78;;;4.10;99.90;;;;;;5038329;28;20044;-53
2021/12/20 06:43:12;;;;;;;151.65;76.00;;;4.00;99.90;;;;;;5050775;28;20025;-51
2021/12/20 06:45:38;;;;;;;129.23;66.50;;;4.00;99.90;;;;;;5052170;28;20509;-55
2021/12/20 06:48:12;;;;;;;132.18;64.90;;;4.00;99.90;;;;;;5052204;28;20026;-54
2021/12/20 06:50:38;;;;;;;172.07;77.47;;;4.00;99.90;;;;;;5051968;28;20080;-51
2021/12/20 06:53:08;;;;;;;174.63;79.60;;;4.00;99.90;;;;;;5052823;28;20057;-50
2021/12/20 06:55:35;;;;;;;172.57;78.72;;;4.10;99.90;;;;;;5053403;28;20029;-51
2021/12/20 06:58:01;;;;;;;156.93;73.82;;;4.20;99.90;;;;;;5053728;28;20049;-52
2021/12/20 07:00:27;;;;;;;158.15;71.53;;;4.20;99.90;;;;;;5053450;28;20032;-48
2021/12/20 07:02:53;;;;;;;166.88;79.68;;;4.20;99.90;;;;;;5052202;28;20025;-48
2021/12/20 07:05:20;;;;;;;177.80;79.88;;;4.20;99.90;;;;;;5050897;28;20040;-52
2021/12/20 07:07:46;;;;;;;221.95;98.93;;;4.20;99.90;;;;;;5042928;28;20048;-51
2021/12/20 07:10:12;;;;;;;190.98;90.88;;;4.30;99.90;;;;;;5033270;28;20017;-49
2021/12/20 07:12:38;;;;;;;187.15;94.45;;;4.30;99.90;;;;;;5053231;28;20088;-49
2021/12/20 07:15:06;;;;;;;488.05;239.55;;;4.30;99.90;;;;;;5051804;28;20013;-51
2021/12/20 07:17:32;;;;;;;402.83;190.25;;;4.20;99.90;;;;;;5047458;28;20075;-51
2021/12/20 07:20:00;;;;;;;499.60;247.50;;;4.20;99.90;;;;;;5046846;28;20033;-52
2021/12/20 07:22:26;;;;;;;389.45;198.43;;;4.30;99.90;;;;;;5053099;28;20029;-55
2021/12/20 07:24:52;;;;;;;356.60;189.98;;;4.20;99.90;;;;;;5052119;28;20497;-51
2021/12/20 07:27:19;;;;;;;334.00;173.63;;;4.10;99.90;;;;;;5049216;28;20032;-52
2021/12/20 07:29:45;;;;;;;294.25;155.23;;;4.10;99.90;;;;;;5044388;28;20398;-53
2021/12/20 07:32:12;;;;;;;269.75;141.45;;;4.20;99.90;;;;;;5045236;28;20029;-51
2021/12/20 07:34:38;;;;;;;250.70;131.13;;;4.20;99.90;;;;;;5040463;28;20036;-47
2021/12/20 07:37:05;;;;;;;218.38;120.53;;;4.30;99.90;;;;;;5044144;28;20079;-56
2021/12/20 07:39:31;;;;;;;203.98;111.18;;;4.50;99.90;;;;;;5046455;28;20025;-55
2021/12/20 07:41:57;;;;;;;237.00;128.27;;;4.60;99.90;;;;;;5048773;28;20476;-53
2021/12/20 07:44:23;;;;;;;463.27;246.32;;;4.70;99.90;;;;;;5051799;28;20063;-52
2021/12/20 07:46:49;;;;;;;492.55;274.10;;;4.70;99.90;;;;;;5052002;28;20021;-56
2021/12/20 07:49:15;;;;;;;459.25;255.38;;;4.60;99.90;;;;;;5051085;28;20053;-52
2021/12/20 07:51:42;;;;;;;435.67;234.13;;;4.70;99.90;;;;;;5048772;28;20052;-51
2021/12/20 07:54:08;;;;;;;405.00;213.98;;;4.80;99.90;;;;;;5050144;28;20029;-55
2021/12/20 07:56:34;;;;;;;382.80;194.55;;;5.30;99.90;;;;;;5040902;28;20112;-58
2021/12/20 07:59:00;;;;;;;368.55;195.77;;;6.40;99.90;;;;;;5031626;28;20033;-52
2021/12/20 08:01:27;;;;;;;355.27;193.18;;;7.00;99.90;;;;;;5030650;28;20075;-52
2021/12/20 08:03:53;;;;;;;349.65;193.25;;;7.70;99.90;;;;;;5038524;28;20422;-55
2021/12/20 08:06:20;;;;;;;332.67;182.93;;;9.40;99.70;;;;;;5046134;28;20112;-58
2021/12/20 08:08:45;;;;;;;335.30;187.13;;;9.80;92.30;;;;;;5047190;28;20032;-55
2021/12/20 08:11:11;;;;;;;296.45;166.40;;;10.90;87.60;;;;;;5038268;28;20021;-55
2021/12/20 08:13:44;;;;;;;277.45;152.73;;;11.20;77.20;;;;;;5039669;28;20114;-57
2021/12/20 08:16:14;;;;;;;204.63;114.78;;;10.10;80.30;;;;;;5050400;28;20017;-54
2021/12/20 08:18:44;;;;;;;180.00;99.45;;;9.20;83.30;;;;;;5048350;28;20032;-52
2021/12/20 08:21:11;;;;;;;160.23;87.55;;;8.60;90.10;;;;;;5047352;28;20025;-55
2021/12/20 08:23:37;;;;;;;143.63;77.32;;;8.10;93.00;;;;;;5049138;28;20498;-55
2021/12/20 08:26:04;;;;;;;107.53;60.38;;;7.70;94.90;;;;;;5049092;28;20546;-57
2021/12/20 08:28:30;;;;;;;103.25;56.10;;;7.40;96.00;;;;;;5048595;28;20356;-55
2021/12/20 08:30:56;;;;;;;120.40;62.25;;;7.30;97.90;;;;;;5047187;28;20064;-55
2021/12/20 08:33:22;;;;;;;145.75;72.93;;;7.20;98.70;;;;;;5047452;28;20045;-54
2021/12/20 08:35:49;;;;;;;139.95;70.57;;;7.20;98.70;;;;;;5048505;28;20032;-57
2021/12/20 08:38:17;;;;;;;133.60;68.18;;;7.20;98.80;;;;;;5050642;28;20021;-49
2021/12/20 08:40:43;;;;;;;121.20;63.45;;;7.30;98.10;;;;;;5051696;28;20033;-53
2021/12/20 08:43:09;;;;;;;145.40;76.50;;;7.90;98.50;;;;;;5051414;28;20048;-52
2021/12/20 08:45:35;;;;;;;129.93;72.38;;;8.20;95.60;;;;;;5051654;28;20464;-50
2021/12/20 08:48:01;;;;;;;115.40;65.43;;;8.10;95.70;;;;;;5038953;28;20471;-53
2021/12/20 08:50:27;;;;;;;113.50;66.65;;;7.90;96.10;;;;;;5043062;28;20052;-50
2021/12/20 08:52:53;;;;;;;124.90;73.28;;;7.70;96.90;;;;;;5050745;28;20041;-53
2021/12/20 08:55:20;;;;;;;132.18;77.55;;;7.60;97.90;;;;;;5043178;28;20036;-53
2021/12/20 08:57:46;;;;;;;161.90;95.85;;;7.50;97.30;;;;;;5039965;28;20025;-54
2021/12/20 09:00:25;;;;;;;165.15;96.13;;;7.50;97.90;;;;;;5035715;28;20029;-52
2021/12/20 09:02:51;;;;;;;216.20;121.28;;;7.90;98.70;;;;;;5054220;28;20120;-49
2021/12/20 09:05:19;;;;;;;200.75;112.53;;;8.00;96.40;;;;;;5045858;28;20036;-54
2021/12/20 09:07:45;;;;;;;205.05;113.57;;;8.10;95.50;;;;;;5045944;28;20116;-54
2021/12/20 09:10:12;;;;;;;180.73;103.15;;;8.00;95.30;;;;;;5046850;28;20160;-55
2021/12/20 09:12:40;;;;;;;184.65;99.93;;;7.90;95.70;;;;;;5041865;28;20044;-50
2021/12/20 09:15:06;;;;;;;161.75;92.20;;;7.90;95.40;;;;;;5052361;28;20028;-52
2021/12/20 09:17:35;;;;;;;138.32;78.82;;;7.80;95.30;;;;;;5051460;28;20231;-54
2021/12/20 09:20:01;;;;;;;137.30;77.88;;;7.70;94.90;;;;;;5038145;28;20467;-49
2021/12/20 09:22:29;;;;;;;153.63;86.63;;;7.70;96.50;;;;;;5051852;28;20043;-51
2021/12/20 09:24:55;;;;;;;144.88;83.00;;;7.70;96.60;;;;;;5052157;28;20353;-59
2021/12/20 09:27:21;;;;;;;143.60;80.55;;;7.70;97.30;;;;;;5052812;28;20028;-54
2021/12/20 09:29:47;;;;;;;127.68;75.53;;;7.80;97.30;;;;;;5053768;28;20497;-51
2021/12/20 09:32:13;;;;;;;127.43;72.05;;;7.90;96.50;;;;;;5054491;28;20017;-53
2021/12/20 09:34:39;;;;;;;121.78;71.15;;;7.70;97.30;;;;;;5053394;28;20139;-55
2021/12/20 09:37:07;;;;;;;133.50;73.43;;;7.70;97.20;;;;;;5053174;28;20104;-54
2021/12/20 09:39:37;;;;;;;138.60;77.15;;;7.80;96.30;;;;;;5041347;28;20108;-58
2021/12/20 09:42:04;;;;;;;136.88;77.75;;;7.70;97.20;;;;;;5029945;28;20040;-56
2021/12/20 09:44:31;;;;;;;135.32;75.13;;;7.80;97.60;;;;;;5034706;28;20045;-54
2021/12/20 09:46:59;;;;;;;130.30;71.05;;;7.80;96.30;;;;;;5045309;28;20025;-54
2021/12/20 09:49:25;;;;;;;101.78;60.40;;;7.80;97.20;;;;;;5051570;28;20048;-51
2021/12/20 09:51:52;;;;;;;98.75;53.58;;;7.80;98.10;;;;;;5046701;28;20124;-51
2021/12/20 09:54:18;;;;;;;77.22;45.47;;;7.90;97.80;;;;;;5041928;28;20037;-52
2021/12/20 09:56:44;;;;;;;65.38;39.42;;;8.00;97.30;;;;;;5045442;28;20025;-55
2021/12/20 09:59:17;;;;;;;53.35;31.75;;;8.00;96.30;;;;;;5036641;28;20308;-53
2021/12/20 10:01:44;;;;;;;48.35;28.58;;;8.10;94.00;;;;;;5039629;28;20039;-49
2021/12/20 10:04:10;;;;;;;40.75;26.60;;;7.90;94.40;;;;;;5036438;28;20086;-51
2021/12/20 10:06:37;;;;;;;36.72;23.55;;;8.00;94.70;;;;;;5050194;28;20360;-53
2021/12/20 10:09:11;;;;;;;29.80;20.05;;;8.50;92.80;;;;;;5041958;28;20034;-56
2021/12/20 10:11:38;;;;;;;29.27;19.17;;;8.90;85.40;;;;;;5038636;28;20293;-51
2021/12/20 10:14:19;;;;;;;27.60;17.80;;;9.10;86.20;;;;;;5031786;28;20044;-53
2021/12/20 10:16:45;;;;;;;25.98;16.42;;;9.40;80.20;;;;;;5046405;28;20033;-52
2021/12/20 10:19:31;;;;;;;24.15;16.33;;;9.70;76.30;;;;;;5031067;28;20106;-54
2021/12/20 10:22:03;;;;;;;26.50;16.20;;;10.00;75.00;;;;;;5044469;28;20096;-57
2021/12/20 10:24:35;;;;;;;25.65;15.55;;;10.00;71.90;;;;;;5045645;28;20115;-56
2021/12/20 10:27:02;;;;;;;20.70;14.48;;;10.30;73.70;;;;;;5033923;28;20025;-57
2021/12/20 10:29:28;;;;;;;21.45;13.45;;;10.30;74.60;;;;;;5033352;28;20123;-56
2021/12/20 10:31:54;;;;;;;21.33;13.95;;;10.50;70.40;;;;;;5033787;28;20032;-57
2021/12/20 10:34:34;;;;;;;16.27;11.35;;;10.60;67.60;;;;;;5040350;28;20056;-52
2021/12/20 10:37:02;;;;;;;15.77;10.93;;;10.80;66.70;;;;;;5047975;28;20068;-55
2021/12/20 10:39:41;;;;;;;16.02;10.57;;;10.80;68.60;;;;;;5046416;28;20536;-58
2021/12/20 10:42:17;;;;;;;16.58;11.15;;;11.10;66.60;;;;;;5054163;28;20059;-53
2021/12/20 10:44:43;;;;;;;17.90;11.20;;;11.10;62.40;;;;;;5041196;28;20063;-56
2021/12/20 10:47:24;;;;;;;16.48;11.35;;;11.30;62.20;;;;;;5049030;28;20099;-52
2021/12/20 10:49:50;;;;;;;16.77;12.18;;;11.50;60.90;;;;;;5033162;28;20044;-48
2021/12/20 10:52:28;;;;;;;14.70;10.00;;;11.70;59.60;;;;;;5033889;28;20391;-52
2021/12/20 10:54:53;;;;;;;15.85;10.52;;;11.90;57.00;;;;;;5032625;28;20380;-53
2021/12/20 10:57:28;;;;;;;14.68;9.23;;;12.00;57.50;;;;;;5049455;28;20021;-51
2021/12/20 11:00:17;;;;;;;14.30;9.57;;;11.90;56.20;;;;;;5045658;28;20029;-56
2021/12/20 11:06:02;;;;;;;16.52;10.27;;;11.90;56.90;;;;;;5034736;28;20022;-49
2021/12/20 11:11:13;;;;;;;23.17;13.48;;;12.50;54.20;;;;;;5044086;28;20056;-46
2021/12/20 11:13:40;;;;;;;23.33;15.25;;;12.10;54.30;;;;;;5041153;28;20029;-50
2021/12/20 11:16:32;;;;;;;20.60;13.00;;;12.20;54.80;;;;;;5041958;28;20105;-53
2021/12/20 11:19:10;;;;;;;14.38;9.32;;;12.40;53.50;;;;;;5042225;28;20026;-50
2021/12/20 11:21:47;;;;;;;14.68;9.43;;;12.30;52.50;;;;;;5034785;28;20029;-56
2021/12/20 11:24:15;;;;;;;16.05;9.10;;;12.10;52.20;;;;;;5033148;28;20450;-53
2021/12/20 11:26:41;;;;;;;11.48;7.78;;;12.10;52.00;;;;;;5031405;28;20018;-53
2021/12/20 11:29:07;;;;;;;18.90;10.57;;;12.00;52.30;;;;;;5029356;28;20429;-53
2021/12/20 11:31:32;;;;;;;20.60;11.45;;;12.10;52.30;;;;;;5029230;28;20025;-49
2021/12/20 11:34:01;;;;;;;18.80;11.88;;;12.00;52.50;;;;;;5030191;28;20332;-51
2021/12/20 11:36:28;;;;;;;26.40;14.27;;;11.90;52.90;;;;;;5038609;28;20390;-54
2021/12/20 11:38:53;;;;;;;24.92;14.57;;;12.20;52.30;;;;;;5038037;28;20032;-53
2021/12/20 11:41:19;;;;;;;25.73;15.13;;;12.50;51.80;;;;;;5037731;28;20029;-48
2021/12/20 11:43:48;;;;;;;16.60;10.32;;;12.40;50.70;;;;;;5030502;28;20554;-54
2021/12/20 11:46:14;;;;;;;19.90;12.18;;;11.90;52.20;;;;;;5045880;28;20032;-47
2021/12/20 11:48:42;;;;;;;8.60;5.95;;;11.70;52.80;;;;;;5050306;28;20025;-51
2021/12/20 11:51:08;;;;;;;10.05;6.75;;;11.60;51.60;;;;;;5050657;28;20033;-54
2021/12/20 11:53:37;;;;;;;8.63;4.60;;;11.50;53.00;;;;;;5032227;28;20044;-51
2021/12/20 11:56:03;;;;;;;6.05;4.38;;;11.40;49.60;;;;;;5032492;28;20722;-56
2021/12/20 11:58:32;;;;;;;8.57;4.03;;;11.20;50.20;;;;;;5041445;28;20117;-52
2021/12/20 12:01:04;;;;;;;6.10;3.30;;;10.90;49.20;;;;;;5032622;28;20525;-55
2021/12/20 12:03:38;;;;;;;4.00;2.85;;;10.80;49.70;;;;;;5032803;28;20026;-56
2021/12/20 12:06:11;;;;;;;2.63;2.17;;;10.90;48.40;;;;;;5033365;28;20112;-56
2021/12/20 12:08:58;;;;;;;7.32;3.33;;;11.00;48.20;;;;;;5032787;28;20442;-55
2021/12/20 12:11:24;;;;;;;7.32;4.25;;;11.00;48.10;;;;;;5047820;28;20032;-59
2021/12/20 12:14:03;;;;;;;8.88;4.57;;;10.90;47.00;;;;;;5045373;28;20480;-57
2021/12/20 12:16:55;;;;;;;5.88;3.22;;;11.00;47.30;;;;;;5031774;28;20080;-56
2021/12/20 12:19:45;;;;;;;5.72;3.50;;;10.90;49.10;;;;;;5032173;28;20190;-54
2021/12/20 12:22:30;;;;;;;4.72;3.00;;;10.80;46.30;;;;;;5044795;28;20093;-51
2021/12/20 12:24:57;;;;;;;2.97;2.22;;;10.50;47.90;;;;;;5066317;28;20036;-55
2021/12/20 12:27:34;;;;;;;5.95;3.13;;;10.30;51.40;;;;;;5043429;28;20425;-52
2021/12/20 12:30:11;;;;;;;5.15;2.92;;;10.30;49.10;;;;;;5043849;28;20021;-55
2021/12/20 12:32:58;;;;;;;3.72;2.70;;;10.30;49.30;;;;;;5044374;28;20380;-50
2021/12/20 12:35:39;;;;;;;4.95;3.42;;;10.30;49.10;;;;;;5040573;28;20025;-52
2021/12/20 12:38:14;;;;;;;7.95;5.05;;;10.30;51.20;;;;;;5036502;28;20039;-50
2021/12/20 12:40:40;;;;;;;7.15;4.65;;;10.50;50.10;;;;;;5032657;28;20033;-50
2021/12/20 12:43:06;;;;;;;7.93;4.63;;;10.40;50.30;;;;;;5030628;28;20064;-50
2021/12/20 12:45:51;;;;;;;7.95;5.20;;;10.40;51.50;;;;;;5036731;28;20021;-51
2021/12/20 12:48:40;;;;;;;8.13;5.47;;;10.70;49.80;;;;;;5040083;28;20052;-55
2021/12/20 12:51:20;;;;;;;6.68;4.50;;;10.70;49.30;;;;;;5036658;28;20045;-52
2021/12/20 12:53:52;;;;;;;7.88;4.93;;;11.00;50.10;;;;;;5034438;28;20018;-53